createdAt,value
2022-10-31T00:01:49.090Z,98876.03
2022-10-31T00:04:15.596Z,98876.81
2022-10-31T00:06:42.051Z,98875.44
2022-10-31T00:09:10.344Z,98875.44
2022-10-31T00:11:36.825Z,98886.91
2022-10-31T00:14:03.350Z,98883.44
2022-10-31T00:16:30.089Z,98884.50
2022-10-31T00:18:58.348Z,98883.72
2022-10-31T00:21:25.024Z,98889.28
2022-10-31T00:23:52.566Z,98890.59
2022-10-31T00:26:19.241Z,98897.00
2022-10-31T00:28:45.777Z,98888.19
2022-10-31T00:31:12.898Z,98884.16
2022-10-31T00:33:39.880Z,98890.28
2022-10-31T00:36:07.217Z,98890.28
2022-10-31T00:38:34.063Z,98894.81
2022-10-31T00:41:00.537Z,98891.59
2022-10-31T00:43:27.001Z,98896.69
2022-10-31T00:45:53.469Z,98900.41
2022-10-31T00:48:19.949Z,98901.47
2022-10-31T00:50:46.405Z,98905.97
2022-10-31T00:53:12.887Z,98910.00
2022-10-31T00:55:39.336Z,98912.69
2022-10-31T00:58:05.911Z,98907.59
2022-10-31T01:00:32.448Z,98912.94
2022-10-31T01:02:59.121Z,98911.06
2022-10-31T01:05:25.813Z,98909.47
2022-10-31T01:07:52.355Z,98902.28
2022-10-31T01:10:19.113Z,98912.13
2022-10-31T01:12:46.876Z,98907.84
2022-10-31T01:15:14.842Z,98904.94
2022-10-31T01:17:41.686Z,98910.28
2022-10-31T01:20:08.752Z,98913.16
2022-10-31T01:22:35.299Z,98910.75
2022-10-31T01:25:01.767Z,98916.91
2022-10-31T01:27:28.229Z,98909.97
2022-10-31T01:29:54.686Z,98915.28
2022-10-31T01:32:21.147Z,98915.28
2022-10-31T01:34:47.597Z,98909.16
2022-10-31T01:37:14.070Z,98902.72
2022-10-31T01:39:40.541Z,98918.22
2022-10-31T01:42:07.315Z,98913.69
2022-10-31T01:44:33.634Z,98910.22
2022-10-31T01:47:02.725Z,98908.59
2022-10-31T01:49:37.149Z,98901.66
2022-10-31T01:52:06.131Z,98907.78
2022-10-31T01:54:38.753Z,98911.25
2022-10-31T01:57:05.265Z,98912.31
2022-10-31T01:59:32.024Z,98913.13
2022-10-31T02:01:58.696Z,98920.06
2022-10-31T02:04:25.638Z,98926.44
2022-10-31T02:06:53.744Z,98921.09
2022-10-31T02:09:24.253Z,98922.19
2022-10-31T02:11:53.990Z,98921.38
2022-10-31T02:14:22.727Z,98927.50
2022-10-31T02:16:49.191Z,98922.44
2022-10-31T02:19:19.688Z,98908.53
2022-10-31T02:21:59.578Z,98912.25
2022-10-31T02:24:57.106Z,98915.97
2022-10-31T02:27:54.014Z,98921.31
2022-10-31T02:30:29.531Z,98915.19
2022-10-31T02:33:36.237Z,98909.03
2022-10-31T02:36:16.562Z,98903.94
2022-10-31T02:38:57.915Z,98906.38
2022-10-31T02:41:30.421Z,98905.31
2022-10-31T02:44:13.549Z,98900.78
2022-10-31T02:46:52.703Z,98905.88
2022-10-31T02:49:46.224Z,98905.38
2022-10-31T02:52:24.624Z,98899.78
2022-10-31T02:54:51.143Z,98895.03
2022-10-31T02:57:20.299Z,98903.81
2022-10-31T02:59:48.852Z,98898.81
2022-10-31T03:02:30.613Z,98898.81
2022-10-31T03:05:15.403Z,98904.41
2022-10-31T03:07:53.865Z,98902.56
2022-10-31T03:10:58.996Z,98912.41
2022-10-31T03:13:49.906Z,98915.66
2022-10-31T03:16:23.347Z,98902.31
2022-10-31T03:19:04.173Z,98903.34
2022-10-31T03:21:36.629Z,98905.47
2022-10-31T03:24:03.114Z,98924.69
2022-10-31T03:26:29.567Z,98930.28
2022-10-31T03:29:07.446Z,98935.34
2022-10-31T03:31:36.669Z,98950.81
2022-10-31T03:34:03.165Z,98952.41
2022-10-31T03:36:31.030Z,98951.34
2022-10-31T03:38:57.574Z,98940.63
2022-10-31T03:41:26.202Z,98950.81
2022-10-31T03:43:58.154Z,98948.41
2022-10-31T03:46:24.650Z,98943.28
2022-10-31T03:48:51.130Z,98948.63
2022-10-31T03:51:44.320Z,98947.03
2022-10-31T03:54:29.488Z,98937.41
2022-10-31T03:56:57.892Z,98940.28
2022-10-31T03:59:33.420Z,98951.00
2022-10-31T04:02:03.230Z,98951.00
2022-10-31T04:04:29.784Z,98945.91
2022-10-31T04:06:56.976Z,98937.38
2022-10-31T04:09:23.435Z,98936.56
2022-10-31T04:11:51.586Z,98928.78
2022-10-31T04:14:18.041Z,98936.25
2022-10-31T04:16:44.832Z,98937.84
2022-10-31T04:19:12.100Z,98936.25
2022-10-31T04:21:38.627Z,98939.16
2022-10-31T04:24:05.484Z,98933.25
2022-10-31T04:26:31.949Z,98928.50
2022-10-31T04:28:58.438Z,98937.31
2022-10-31T04:31:24.896Z,98930.38
2022-10-31T04:33:51.350Z,98935.13
2022-10-31T04:36:17.812Z,98930.59
2022-10-31T04:38:44.275Z,98931.41
2022-10-31T04:41:10.723Z,98938.06
2022-10-31T04:43:37.238Z,98929.00
2022-10-31T04:46:03.737Z,98935.13
2022-10-31T04:48:30.223Z,98940.47
2022-10-31T04:51:00.946Z,98932.47
2022-10-31T04:53:27.809Z,98941.53
2022-10-31T04:55:54.263Z,98935.13
2022-10-31T04:58:20.732Z,98945.78
2022-10-31T05:00:47.246Z,98949.53
2022-10-31T05:03:13.814Z,98944.19
2022-10-31T05:05:40.283Z,98946.06
2022-10-31T05:08:07.115Z,98934.00
2022-10-31T05:10:33.682Z,98941.78
2022-10-31T05:13:01.872Z,98940.41
2022-10-31T05:15:28.904Z,98949.19
2022-10-31T05:17:55.497Z,98946.78
2022-10-31T05:20:23.905Z,98943.31
2022-10-31T05:22:51.370Z,98935.34
2022-10-31T05:25:18.283Z,98939.84
2022-10-31T05:27:46.535Z,98934.53
2022-10-31T05:30:15.071Z,98931.06
2022-10-31T05:32:45.545Z,98936.88
2022-10-31T05:35:13.740Z,98938.75
2022-10-31T05:37:40.208Z,98934.22
2022-10-31T05:40:08.645Z,98941.41
2022-10-31T05:42:35.556Z,98933.63
2022-10-31T05:45:02.103Z,98929.13
2022-10-31T05:47:28.614Z,98931.81
2022-10-31T05:49:55.075Z,98923.22
2022-10-31T05:52:21.568Z,98932.84
2022-10-31T05:54:48.039Z,98934.69
2022-10-31T05:57:14.489Z,98928.56
2022-10-31T05:59:40.981Z,98932.03
2022-10-31T06:02:07.438Z,98935.22
2022-10-31T06:04:33.941Z,98929.03
2022-10-31T06:07:00.532Z,98920.25
2022-10-31T06:09:27.005Z,98924.56
2022-10-31T06:11:53.473Z,98922.91
2022-10-31T06:14:19.945Z,98927.44
2022-10-31T06:16:46.672Z,98923.72
2022-10-31T06:19:13.134Z,98923.16
2022-10-31T06:21:39.585Z,98927.44
2022-10-31T06:24:06.125Z,98930.09
2022-10-31T06:26:32.579Z,98931.97
2022-10-31T06:29:03.035Z,98926.91
2022-10-31T06:31:30.699Z,98919.38
2022-10-31T06:33:57.446Z,98931.16
2022-10-31T06:36:23.994Z,98926.63
2022-10-31T06:38:50.515Z,98930.38
2022-10-31T06:41:17.236Z,98931.16
2022-10-31T06:43:43.747Z,98932.78
2022-10-31T06:46:10.210Z,98939.16
2022-10-31T06:48:36.724Z,98944.22
2022-10-31T06:51:03.257Z,98945.88
2022-10-31T06:53:32.415Z,98941.34
2022-10-31T06:55:58.949Z,98941.34
2022-10-31T06:58:25.489Z,98940.28
2022-10-31T07:00:51.962Z,98950.47
2022-10-31T07:03:18.536Z,98951.56
2022-10-31T07:05:45.048Z,98945.19
2022-10-31T07:08:12.820Z,98949.47
2022-10-31T07:10:40.834Z,98962.03
2022-10-31T07:13:12.415Z,98962.09
2022-10-31T07:15:39.198Z,98968.78
2022-10-31T07:18:06.930Z,98970.97
2022-10-31T07:20:33.766Z,98974.69
2022-10-31T07:23:01.629Z,98975.56
2022-10-31T07:25:28.489Z,98979.06
2022-10-31T07:27:54.944Z,98982.00
2022-10-31T07:30:21.401Z,98982.81
2022-10-31T07:32:49.302Z,98978.00
2022-10-31T07:35:17.378Z,98980.47
2022-10-31T07:37:43.880Z,98979.94
2022-10-31T07:40:10.765Z,98985.28
2022-10-31T07:42:37.878Z,98977.84
2022-10-31T07:45:05.356Z,98979.72
2022-10-31T07:47:41.232Z,98975.97
2022-10-31T07:50:08.655Z,98972.50
2022-10-31T07:52:35.158Z,98966.69
2022-10-31T07:55:01.730Z,98975.22
2022-10-31T07:57:31.925Z,98969.41
2022-10-31T08:00:00.855Z,98965.94
2022-10-31T08:02:27.326Z,98963.00
2022-10-31T08:04:55.948Z,98959.81
2022-10-31T08:07:25.133Z,98959.13
2022-10-31T08:09:51.712Z,98957.56
2022-10-31T08:12:18.241Z,98965.38
2022-10-31T08:14:45.649Z,98958.22
2022-10-31T08:17:12.203Z,98951.59
2022-10-31T08:19:38.710Z,98958.59
2022-10-31T08:22:05.246Z,98949.09
2022-10-31T08:24:31.757Z,98952.72
2022-10-31T08:26:58.248Z,98952.25
2022-10-31T08:29:24.714Z,98958.47
2022-10-31T08:31:51.182Z,98953.69
2022-10-31T08:34:17.732Z,98948.09
2022-10-31T08:36:45.879Z,98943.13
2022-10-31T08:39:12.351Z,98950.59
2022-10-31T08:41:38.814Z,98945.38
2022-10-31T08:44:05.447Z,98947.97
2022-10-31T08:46:32.789Z,98954.59
2022-10-31T08:48:59.259Z,98953.94
2022-10-31T08:51:25.738Z,98952.81
2022-10-31T08:53:52.266Z,98947.88
2022-10-31T08:56:18.727Z,98944.03
2022-10-31T08:58:45.239Z,98949.38
2022-10-31T09:01:12.014Z,98944.84
2022-10-31T09:03:38.644Z,98942.91
2022-10-31T09:06:09.582Z,98944.16
2022-10-31T09:08:36.495Z,98941.41
2022-10-31T09:11:03.254Z,98931.84
2022-10-31T09:13:29.717Z,98940.47
2022-10-31T09:15:56.895Z,98948.13
2022-10-31T09:18:23.590Z,98950.56
2022-10-31T09:20:50.257Z,98945.84
2022-10-31T09:23:18.389Z,98943.53
2022-10-31T09:25:50.250Z,98943.41
2022-10-31T09:28:21.813Z,98939.38
2022-10-31T09:30:53.002Z,98939.22
2022-10-31T09:33:19.549Z,98937.72
2022-10-31T09:35:46.013Z,98937.53
2022-10-31T09:38:16.809Z,98934.06
2022-10-31T09:40:45.134Z,98932.44
2022-10-31T09:43:23.151Z,98937.69
2022-10-31T09:46:42.508Z,98941.13
2022-10-31T09:49:27.552Z,98933.38
2022-10-31T09:52:06.347Z,98933.25
2022-10-31T09:54:48.378Z,98938.09
2022-10-31T09:57:16.694Z,98931.06
2022-10-31T09:59:44.212Z,98931.16
2022-10-31T10:02:13.593Z,98928.16
2022-10-31T10:04:51.121Z,98932.13
2022-10-31T10:07:29.741Z,98933.13
2022-10-31T10:09:56.230Z,98928.44
2022-10-31T10:12:47.816Z,98929.09
2022-10-31T10:15:32.378Z,98925.97
2022-10-31T10:18:20.207Z,98929.78
2022-10-31T10:21:05.040Z,98924.50
2022-10-31T10:23:34.363Z,98926.69
2022-10-31T10:29:04.607Z,98914.25
2022-10-31T10:31:38.258Z,98918.59
2022-10-31T10:34:19.751Z,98917.03
2022-10-31T10:36:49.938Z,98919.22
2022-10-31T10:39:32.153Z,98916.63
2022-10-31T10:42:17.323Z,98914.06
2022-10-31T10:45:07.161Z,98919.13
2022-10-31T10:47:44.107Z,98909.84
2022-10-31T10:50:20.528Z,98904.03
2022-10-31T10:52:52.112Z,98905.16
2022-10-31T10:55:37.666Z,98901.75
2022-10-31T10:58:10.696Z,98895.34
2022-10-31T11:00:39.298Z,98894.84
2022-10-31T11:03:06.620Z,98895.41
2022-10-31T11:05:59.253Z,98890.38
2022-10-31T11:08:27.422Z,98885.91
2022-10-31T11:11:02.820Z,98887.25
2022-10-31T11:13:29.438Z,98879.53
2022-10-31T11:16:00.591Z,98871.53
2022-10-31T11:18:29.142Z,98866.44
2022-10-31T11:20:57.842Z,98863.22
2022-10-31T11:23:25.453Z,98868.81
2022-10-31T11:25:56.668Z,98855.72
2022-10-31T11:28:23.271Z,98862.41
2022-10-31T11:30:55.328Z,98854.97
2022-10-31T11:33:29.417Z,98853.97
2022-10-31T11:35:58.022Z,98846.50
2022-10-31T11:38:30.083Z,98839.31
2022-10-31T11:41:04.437Z,98836.91
2022-10-31T11:43:30.887Z,98842.81
2022-10-31T11:45:57.406Z,98829.22
2022-10-31T11:48:26.313Z,98827.13
2022-10-31T11:50:55.561Z,98820.78
2022-10-31T11:53:35.384Z,98823.22
2022-10-31T11:56:05.110Z,98821.94
2022-10-31T11:58:31.585Z,98817.13
2022-10-31T12:00:58.480Z,98816.63
2022-10-31T12:03:28.108Z,98815.88
2022-10-31T12:06:04.819Z,98813.75
2022-10-31T12:08:34.858Z,98803.88
2022-10-31T12:11:29.325Z,98803.06
2022-10-31T12:14:34.198Z,98797.72
2022-10-31T12:17:05.991Z,98802.28
2022-10-31T12:20:11.906Z,98793.69
2022-10-31T12:23:04.565Z,98789.38
2022-10-31T12:25:40.244Z,98785.88
2022-10-31T12:28:41.588Z,98773.34
2022-10-31T12:31:21.704Z,98773.34
2022-10-31T12:34:25.961Z,98766.72
2022-10-31T12:37:16.731Z,98769.66
2022-10-31T12:40:09.939Z,98762.22
2022-10-31T12:42:39.536Z,98756.63
2022-10-31T12:45:13.072Z,98742.47
2022-10-31T12:48:00.641Z,98745.16
2022-10-31T12:50:37.926Z,98736.88
2022-10-31T12:53:22.544Z,98733.41
2022-10-31T12:56:07.184Z,98734.47
2022-10-31T12:58:39.553Z,98728.34
2022-10-31T13:01:13.839Z,98720.63
2022-10-31T13:03:54.293Z,98717.38
2022-10-31T13:06:23.529Z,98720.03
2022-10-31T13:08:58.560Z,98709.66
2022-10-31T13:11:46.391Z,98706.19
2022-10-31T13:14:37.991Z,98706.41
2022-10-31T13:17:04.456Z,98698.69
2022-10-31T13:19:42.193Z,98698.38
2022-10-31T13:22:16.705Z,98690.94
2022-10-31T13:24:48.194Z,98684.25
2022-10-31T13:27:27.973Z,98677.84
2022-10-31T13:30:05.005Z,98686.91
2022-10-31T13:32:51.681Z,98680.25
2022-10-31T13:35:33.958Z,98670.63
2022-10-31T13:38:09.998Z,98671.69
2022-10-31T13:41:02.005Z,98657.81
2022-10-31T13:43:33.162Z,98665.25
2022-10-31T13:45:59.633Z,98672.44
2022-10-31T13:48:25.984Z,98669.00
2022-10-31T13:51:03.061Z,98665.53
2022-10-31T13:54:00.680Z,98657.22
2022-10-31T13:56:29.086Z,98654.81
2022-10-31T13:59:14.070Z,98651.06
2022-10-31T14:01:47.765Z,98643.31
2022-10-31T14:04:20.731Z,98639.88
2022-10-31T14:06:50.173Z,98649.97
2022-10-31T14:09:31.969Z,98643.81
2022-10-31T14:12:02.034Z,98648.34
2022-10-31T14:14:33.274Z,98645.16
2022-10-31T14:16:59.728Z,98642.72
2022-10-31T14:19:26.174Z,98640.06
2022-10-31T14:21:52.682Z,98637.94
2022-10-31T14:24:24.957Z,98641.41
2022-10-31T14:26:59.165Z,98643.50
2022-10-31T14:29:32.944Z,98641.91
2022-10-31T14:32:11.758Z,98630.69
2022-10-31T14:34:42.925Z,98626.41
2022-10-31T14:37:18.299Z,98620.03
2022-10-31T14:40:09.069Z,98620.53
2022-10-31T14:42:54.206Z,98618.41
2022-10-31T14:45:31.926Z,98607.47
2022-10-31T14:48:14.886Z,98603.44
2022-10-31T14:50:54.793Z,98599.19
2022-10-31T14:53:32.913Z,98595.94
2022-10-31T14:56:04.228Z,98594.63
2022-10-31T14:58:42.315Z,98586.63
2022-10-31T15:01:09.114Z,98577.03
2022-10-31T15:03:39.470Z,98579.41
2022-10-31T15:06:15.361Z,98577.28
2022-10-31T15:08:45.582Z,98579.94
2022-10-31T15:11:15.667Z,98587.38
2022-10-31T15:13:55.520Z,98570.59
2022-10-31T15:16:22.911Z,98574.34
2022-10-31T15:19:05.102Z,98572.94
2022-10-31T15:21:31.853Z,98576.66
2022-10-31T15:23:59.408Z,98574.50
2022-10-31T15:26:36.296Z,98573.69
2022-10-31T15:29:06.893Z,98565.19
2022-10-31T15:31:33.415Z,98566.22
2022-10-31T15:34:03.960Z,98564.63
2022-10-31T15:36:33.279Z,98569.63
2022-10-31T15:39:02.597Z,98571.50
2022-10-31T15:41:39.556Z,98569.91
2022-10-31T15:44:22.154Z,98559.06
2022-10-31T15:47:02.429Z,98555.56
2022-10-31T15:49:34.768Z,98548.66
2022-10-31T15:52:10.467Z,98555.09
2022-10-31T15:54:36.945Z,98551.16
2022-10-31T15:57:03.452Z,98555.16
2022-10-31T15:59:30.977Z,98555.94
2022-10-31T16:02:02.881Z,98549.59
2022-10-31T16:04:29.763Z,98549.59
2022-10-31T16:07:03.162Z,98537.88
2022-10-31T16:09:29.655Z,98530.69
2022-10-31T16:11:57.397Z,98534.13
2022-10-31T16:14:26.786Z,98524.53
2022-10-31T16:16:55.682Z,98524.53
2022-10-31T16:19:31.082Z,98518.16
2022-10-31T16:22:07.162Z,98508.56
2022-10-31T16:24:45.833Z,98503.22
2022-10-31T16:27:20.259Z,98523.47
2022-10-31T16:29:47.640Z,98517.88
2022-10-31T16:32:27.133Z,98521.31
2022-10-31T16:35:08.826Z,98517.63
2022-10-31T16:37:35.311Z,98521.31
2022-10-31T16:40:01.833Z,98513.59
2022-10-31T16:42:28.345Z,98520.78
2022-10-31T16:44:55.161Z,98512.78
2022-10-31T16:47:23.435Z,98511.19
2022-10-31T16:49:52.733Z,98519.19
2022-10-31T16:52:19.265Z,98514.06
2022-10-31T16:54:46.466Z,98525.59
2022-10-31T16:57:22.298Z,98522.91
2022-10-31T16:59:49.586Z,98526.59
2022-10-31T17:02:17.082Z,98527.66
2022-10-31T17:04:43.722Z,98505.53
2022-10-31T17:07:10.182Z,98490.16
2022-10-31T17:09:36.626Z,98502.47
2022-10-31T17:12:03.279Z,98503.59
2022-10-31T17:14:29.750Z,98507.91
2022-10-31T17:16:58.950Z,98517.81
2022-10-31T17:19:25.391Z,98519.19
2022-10-31T17:21:51.841Z,98516.78
2022-10-31T17:24:18.285Z,98506.97
2022-10-31T17:26:44.808Z,98513.63
2022-10-31T17:29:11.484Z,98508.84
2022-10-31T17:31:39.193Z,98514.19
2022-10-31T17:34:06.544Z,98507.25
2022-10-31T17:36:33.455Z,98500.56
2022-10-31T17:39:00.006Z,98503.50
2022-10-31T17:41:26.551Z,98496.59
2022-10-31T17:43:57.916Z,98498.47
2022-10-31T17:46:24.466Z,98499.25
2022-10-31T17:48:50.938Z,98502.44
2022-10-31T17:51:17.562Z,98490.19
2022-10-31T17:53:44.050Z,98490.69
2022-10-31T17:56:10.609Z,98485.38
2022-10-31T17:58:39.812Z,98484.06
2022-10-31T18:01:14.196Z,98488.84
2022-10-31T18:03:41.112Z,98487.00
2022-10-31T18:06:07.709Z,98484.13
2022-10-31T18:08:35.429Z,98483.34
2022-10-31T18:11:12.083Z,98482.03
2022-10-31T18:13:38.653Z,98476.97
2022-10-31T18:18:38.031Z,98469.75
2022-10-31T18:21:04.650Z,98468.69
2022-10-31T18:23:31.135Z,98468.41
2022-10-31T18:25:57.684Z,98465.75
2022-10-31T18:28:24.158Z,98459.88
2022-10-31T18:30:50.629Z,98465.75
2022-10-31T18:33:17.105Z,98457.75
2022-10-31T18:35:43.849Z,98449.22
2022-10-31T18:38:10.539Z,98436.66
2022-10-31T18:40:37.201Z,98432.66
2022-10-31T18:43:03.706Z,98418.78
2022-10-31T18:45:45.386Z,98423.59
2022-10-31T18:48:14.242Z,98422.25
2022-10-31T18:50:40.790Z,98425.72
2022-10-31T18:53:07.235Z,98416.63
2022-10-31T18:55:33.706Z,98407.56
2022-10-31T18:58:00.648Z,98404.38
2022-10-31T19:00:27.131Z,98401.19
2022-10-31T19:02:56.300Z,98396.34
2022-10-31T19:05:23.126Z,98383.25
2022-10-31T19:07:49.577Z,98386.22
2022-10-31T19:10:16.124Z,98384.34
2022-10-31T19:12:42.609Z,98372.06
2022-10-31T19:15:09.348Z,98383.81
2022-10-31T19:17:35.826Z,98377.41
2022-10-31T19:20:02.377Z,98372.88
2022-10-31T19:22:31.272Z,98357.94
2022-10-31T19:24:57.752Z,98353.69
2022-10-31T19:27:26.418Z,98359.00
2022-10-31T19:29:52.927Z,98356.06
2022-10-31T19:32:19.395Z,98345.66
2022-10-31T19:34:45.910Z,98349.66
2022-10-31T19:37:12.399Z,98355.00
2022-10-31T19:39:43.950Z,98350.44
2022-10-31T19:42:11.015Z,98342.97
2022-10-31T19:44:37.501Z,98346.44
2022-10-31T19:47:03.948Z,98326.97
2022-10-31T19:49:30.408Z,98326.41
2022-10-31T19:51:56.929Z,98324.81
2022-10-31T19:54:23.581Z,98326.69
2022-10-31T19:56:50.070Z,98329.09
2022-10-31T19:59:16.565Z,98320.28
2022-10-31T20:01:43.162Z,98329.63
2022-10-31T20:04:09.670Z,98333.34
2022-10-31T20:06:40.233Z,98319.25
2022-10-31T20:09:09.610Z,98321.13
2022-10-31T20:11:36.922Z,98321.66
2022-10-31T20:14:03.785Z,98328.59
2022-10-31T20:16:30.311Z,98329.91
2022-10-31T20:18:56.871Z,98325.91
2022-10-31T20:21:24.879Z,98329.38
2022-10-31T20:24:02.063Z,98320.59
2022-10-31T20:26:29.086Z,98314.72
2022-10-31T20:28:56.325Z,98314.97
2022-10-31T20:31:24.390Z,98314.97
2022-10-31T20:33:51.108Z,98325.41
2022-10-31T20:36:22.814Z,98328.84
2022-10-31T20:38:49.944Z,98316.84
2022-10-31T20:41:17.185Z,98316.03
2022-10-31T20:43:44.184Z,98302.19
2022-10-31T20:46:12.633Z,98307.25
2022-10-31T20:48:39.158Z,98306.72
2022-10-31T20:51:13.740Z,98292.03
2022-10-31T20:53:40.195Z,98288.06
2022-10-31T20:56:07.806Z,98287.50
2022-10-31T20:58:35.237Z,98297.91
2022-10-31T21:01:01.798Z,98295.00
2022-10-31T21:03:28.356Z,98291.25
2022-10-31T21:05:59.269Z,98289.63
2022-10-31T21:08:26.358Z,98288.31
2022-10-31T21:10:52.847Z,98287.22
2022-10-31T21:13:19.354Z,98284.53
2022-10-31T21:15:46.070Z,98277.91
2022-10-31T21:18:12.607Z,98272.00
2022-10-31T21:20:43.802Z,98273.59
2022-10-31T21:23:11.071Z,98269.34
2022-10-31T21:25:41.736Z,98276.03
2022-10-31T21:28:09.201Z,98262.94
2022-10-31T21:30:43.152Z,98270.16
2022-10-31T21:33:09.650Z,98273.09
2022-10-31T21:35:36.135Z,98266.97
2022-10-31T21:38:03.082Z,98268.81
2022-10-31T21:40:31.192Z,98265.63
2022-10-31T21:42:57.742Z,98264.81
2022-10-31T21:45:24.350Z,98263.22
2022-10-31T21:47:50.847Z,98268.84
2022-10-31T21:50:17.471Z,98263.22
2022-10-31T21:52:43.967Z,98263.75
2022-10-31T21:55:10.493Z,98261.06
2022-10-31T21:57:37.087Z,98266.69
2022-10-31T22:00:09.042Z,98265.88
2022-10-31T22:02:36.190Z,98261.34
2022-10-31T22:05:02.815Z,98256.81
2022-10-31T22:07:29.282Z,98261.34
2022-10-31T22:09:55.745Z,98256.28
2022-10-31T22:12:22.259Z,98268.25
2022-10-31T22:14:48.714Z,98262.97
2022-10-31T22:17:15.523Z,98265.06
2022-10-31T22:19:41.971Z,98269.34
2022-10-31T22:22:08.444Z,98261.88
2022-10-31T22:24:34.904Z,98266.41
2022-10-31T22:27:01.378Z,98261.91
2022-10-31T22:29:28.768Z,98251.47
2022-10-31T22:31:58.801Z,98262.13
2022-10-31T22:34:27.193Z,98256.28
2022-10-31T22:36:54.199Z,98248.28
2022-10-31T22:39:20.941Z,98257.88
2022-10-31T22:41:47.434Z,98252.25
2022-10-31T22:44:13.897Z,98245.34
2022-10-31T22:46:40.430Z,98241.88
2022-10-31T22:49:09.737Z,98238.94
2022-10-31T22:51:39.029Z,98234.41
2022-10-31T22:54:06.957Z,98229.63
2022-10-31T22:56:34.056Z,98230.97
2022-10-31T22:59:00.982Z,98232.53
2022-10-31T23:01:29.938Z,98218.97
2022-10-31T23:03:56.937Z,98216.56
2022-10-31T23:06:25.929Z,98210.16
2022-10-31T23:08:52.755Z,98212.03
2022-10-31T23:11:20.638Z,98218.94
2022-10-31T23:14:08.497Z,98212.81
2022-10-31T23:16:54.461Z,98224.03
2022-10-31T23:19:30.431Z,98221.09
2022-10-31T23:22:04.915Z,98222.97
2022-10-31T23:24:37.656Z,98218.16
2022-10-31T23:27:13.557Z,98214.41
2022-10-31T23:29:47.738Z,98206.16
2022-10-31T23:32:20.174Z,98205.34
2022-10-31T23:34:47.214Z,98197.63
2022-10-31T23:37:14.055Z,98188.31
2022-10-31T23:39:40.992Z,98191.22
2022-10-31T23:42:07.545Z,98187.25
2022-10-31T23:44:34.009Z,98183.50
2022-10-31T23:47:00.484Z,98184.03
2022-10-31T23:49:26.964Z,98179.50
2022-10-31T23:51:56.401Z,98180.56
2022-10-31T23:54:23.014Z,98172.31
2022-10-31T23:56:49.476Z,98177.91
2022-10-31T23:59:15.921Z,98172.84
